createdAt,value
2018-01-07T00:00:02.177Z,101154.91
2018-01-07T00:02:30.596Z,101154.91
2018-01-07T00:04:58.935Z,101161.88
2018-01-07T00:07:27.290Z,101160.34
2018-01-07T00:09:56.052Z,101167.53
2018-01-07T00:12:24.512Z,101173.48
2018-01-07T00:14:52.847Z,101181.34
2018-01-07T00:17:21.271Z,101180.05
2018-01-07T00:19:49.613Z,101185.50
2018-01-07T00:22:17.963Z,101194.23
2018-01-07T00:24:46.308Z,101198.83
2018-01-07T00:27:14.655Z,101207.86
2018-01-07T00:29:43.012Z,101202.34
2018-01-07T00:32:11.448Z,101199.25
2018-01-07T00:34:39.811Z,101200.85
2018-01-07T00:37:08.206Z,101200.25
2018-01-07T00:39:36.571Z,101208.41
2018-01-07T00:42:04.982Z,101210.06
2018-01-07T00:44:33.395Z,101215.52
2018-01-07T00:47:01.752Z,101222.55
2018-01-07T00:49:30.125Z,101231.06
2018-01-07T00:51:58.583Z,101238.95
2018-01-07T00:54:26.951Z,101236.87
2018-01-07T00:56:55.295Z,101239.17
2018-01-07T00:59:23.664Z,101240.16
2018-01-07T01:01:52.418Z,101229.54
2018-01-07T01:04:20.763Z,101244.61
2018-01-07T01:06:49.116Z,101248.19
2018-01-07T01:09:17.508Z,101255.59
2018-01-07T01:11:45.874Z,101264.73
2018-01-07T01:14:14.226Z,101268.80
2018-01-07T01:16:42.668Z,101264.97
2018-01-07T01:19:11.051Z,101286.77
2018-01-07T01:21:39.403Z,101287.34
2018-01-07T01:24:07.743Z,101293.15
2018-01-07T01:26:36.492Z,101291.78
2018-01-07T01:29:04.835Z,101302.52
2018-01-07T01:31:33.220Z,101293.73
2018-01-07T01:34:01.872Z,101308.69
2018-01-07T01:36:30.622Z,101306.55
2018-01-07T01:38:58.992Z,101319.34
2018-01-07T01:41:27.495Z,101313.34
2018-01-07T01:43:55.855Z,101324.14
2018-01-07T01:46:24.242Z,101336.27
2018-01-07T01:48:52.579Z,101334.84
2018-01-07T01:51:20.927Z,101332.93
2018-01-07T01:53:49.383Z,101345.16
2018-01-07T01:56:17.736Z,101344.46
2018-01-07T01:58:46.071Z,101362.50
2018-01-07T02:01:14.942Z,101352.71
2018-01-07T02:03:43.299Z,101359.80
2018-01-07T02:06:11.655Z,101368.34
2018-01-07T02:08:40.004Z,101362.34
2018-01-07T02:11:08.751Z,101364.70
2018-01-07T02:13:37.090Z,101376.89
2018-01-07T02:16:05.460Z,101376.20
2018-01-07T02:18:33.894Z,101381.32
2018-01-07T02:21:02.255Z,101378.27
2018-01-07T02:23:30.595Z,101385.70
2018-01-07T02:25:58.940Z,101389.02
2018-01-07T02:28:27.691Z,101395.23
2018-01-07T02:30:56.054Z,101402.17
2018-01-07T02:33:24.462Z,101406.60
2018-01-07T02:35:53.002Z,101400.53
2018-01-07T02:38:21.433Z,101414.45
2018-01-07T02:40:49.794Z,101413.72
2018-01-07T02:43:18.151Z,101428.17
2018-01-07T02:45:46.532Z,101428.55
2018-01-07T02:48:14.870Z,101430.29
2018-01-07T02:50:43.312Z,101427.30
2018-01-07T02:53:11.696Z,101435.92
2018-01-07T02:55:40.053Z,101453.87
2018-01-07T02:58:08.425Z,101441.80
2018-01-07T03:00:36.796Z,101451.78
2018-01-07T03:03:05.239Z,101452.52
2018-01-07T03:05:33.689Z,101464.67
2018-01-07T03:08:02.025Z,101464.29
2018-01-07T03:10:30.963Z,101461.48
2018-01-07T03:12:59.316Z,101466.23
2018-01-07T03:15:27.683Z,101473.39
2018-01-07T03:17:56.054Z,101479.47
2018-01-07T03:20:24.405Z,101480.97
2018-01-07T03:22:52.851Z,101491.66
2018-01-07T03:25:21.220Z,101500.72
2018-01-07T03:27:49.602Z,101504.55
2018-01-07T03:30:17.968Z,101507.05
2018-01-07T03:32:46.316Z,101507.36
2018-01-07T03:35:15.157Z,101517.23
2018-01-07T03:37:43.616Z,101510.15
2018-01-07T03:40:11.991Z,101521.94
2018-01-07T03:42:40.346Z,101521.53
2018-01-07T03:45:08.688Z,101528.65
2018-01-07T03:47:37.060Z,101529.35
2018-01-07T03:50:05.452Z,101546.48
2018-01-07T03:52:33.791Z,101544.95
2018-01-07T03:55:02.162Z,101551.34
2018-01-07T03:57:30.569Z,101561.26
2018-01-07T03:59:58.904Z,101556.41
2018-01-07T04:02:29.087Z,101563.38
2018-01-07T04:04:57.440Z,101567.44
2018-01-07T04:07:25.793Z,101565.04
2018-01-07T04:09:54.139Z,101563.44
2018-01-07T04:12:22.580Z,101563.52
2018-01-07T04:14:50.924Z,101580.48
2018-01-07T04:17:19.271Z,101597.36
2018-01-07T04:19:47.715Z,101599.34
2018-01-07T04:22:16.066Z,101598.24
2018-01-07T04:24:44.407Z,101601.55
2018-01-07T04:27:12.756Z,101611.78
2018-01-07T04:29:41.095Z,101606.45
2018-01-07T04:32:09.449Z,101613.27
2018-01-07T04:34:38.206Z,101608.70
2018-01-07T04:37:06.596Z,101622.61
2018-01-07T04:39:34.936Z,101608.64
2018-01-07T04:42:03.324Z,101620.49
2018-01-07T04:44:31.668Z,101629.09
2018-01-07T04:47:00.100Z,101630.22
2018-01-07T04:49:28.447Z,101638.52
2018-01-07T04:51:56.799Z,101646.41
2018-01-07T04:54:25.541Z,101634.61
2018-01-07T04:56:53.883Z,101646.81
2018-01-07T04:59:22.227Z,101652.38
2018-01-07T05:01:50.967Z,101655.33
2018-01-07T05:04:19.319Z,101660.59
2018-01-07T05:06:47.673Z,101673.91
2018-01-07T05:09:16.412Z,101669.41
2018-01-07T05:11:44.795Z,101685.89
2018-01-07T05:14:13.143Z,101689.58
2018-01-07T05:16:41.528Z,101692.67
2018-01-07T05:19:09.997Z,101704.20
2018-01-07T05:21:38.343Z,101701.13
2018-01-07T05:24:06.728Z,101702.06
2018-01-07T05:26:35.063Z,101720.90
2018-01-07T05:29:03.415Z,101727.53
2018-01-07T05:31:31.811Z,101719.97
2018-01-07T05:34:00.152Z,101727.09
2018-01-07T05:36:29.587Z,101746.61
2018-01-07T05:38:57.937Z,101749.39
2018-01-07T05:41:26.692Z,101750.02
2018-01-07T05:43:55.049Z,101753.59
2018-01-07T05:46:23.429Z,101757.80
2018-01-07T05:48:51.816Z,101775.74
2018-01-07T05:51:20.160Z,101769.02
2018-01-07T05:53:58.213Z,101769.77
2018-01-07T06:02:22.534Z,101788.84
2018-01-07T06:04:50.876Z,101795.33
2018-01-07T06:07:19.221Z,101800.55
2018-01-07T06:09:47.972Z,101810.72
2018-01-07T06:12:16.324Z,101818.19
2018-01-07T06:14:44.667Z,101818.00
2018-01-07T06:17:13.426Z,101824.13
2018-01-07T06:19:41.772Z,101827.36
2018-01-07T06:22:10.156Z,101836.64
2018-01-07T06:24:38.512Z,101838.80
2018-01-07T06:27:06.869Z,101849.81
2018-01-07T06:29:35.633Z,101861.84
2018-01-07T06:32:04.005Z,101864.30
2018-01-07T06:34:32.461Z,101870.77
2018-01-07T06:37:00.828Z,101874.68
2018-01-07T06:39:29.175Z,101883.38
2018-01-07T06:41:57.929Z,101884.36
2018-01-07T06:44:26.286Z,101880.73
2018-01-07T06:46:54.884Z,101890.63
2018-01-07T06:49:23.245Z,101897.59
2018-01-07T06:51:51.624Z,101919.39
2018-01-07T06:54:20.041Z,101914.80
2018-01-07T06:56:48.485Z,101914.20
2018-01-07T06:59:16.865Z,101916.02
2018-01-07T07:01:45.229Z,101920.36
2018-01-07T07:04:13.577Z,101928.61
2018-01-07T07:06:42.348Z,101933.98
2018-01-07T07:09:11.096Z,101929.53
2018-01-07T07:11:39.462Z,101936.11
2018-01-07T07:14:07.849Z,101950.86
2018-01-07T07:16:36.293Z,101951.12
2018-01-07T07:19:05.049Z,101963.19
2018-01-07T07:21:33.504Z,101966.42
2018-01-07T07:24:01.889Z,101977.34
2018-01-07T07:26:30.257Z,101995.18
2018-01-07T07:28:58.608Z,102013.75
2018-01-07T07:31:27.026Z,102015.08
2018-01-07T07:33:55.379Z,102005.15
2018-01-07T07:36:23.780Z,102013.58
2018-01-07T07:38:52.176Z,102023.75
2018-01-07T07:41:20.541Z,102034.77
2018-01-07T07:43:48.892Z,102049.61
2018-01-07T07:46:17.277Z,102047.96
2018-01-07T07:48:45.643Z,102051.11
2018-01-07T07:51:14.021Z,102053.73
2018-01-07T07:53:42.428Z,102060.98
2018-01-07T07:56:10.909Z,102062.26
2018-01-07T07:58:39.248Z,102069.09
2018-01-07T08:01:07.668Z,102072.67
2018-01-07T08:03:36.049Z,102067.93
2018-01-07T08:06:04.420Z,102083.37
2018-01-07T08:08:32.782Z,102083.52
2018-01-07T08:11:01.151Z,102088.65
2018-01-07T08:13:29.556Z,102108.47
2018-01-07T08:15:57.908Z,102112.90
2018-01-07T08:18:26.246Z,102102.14
2018-01-07T08:20:54.610Z,102091.77
2018-01-07T08:23:23.744Z,102080.00
2018-01-07T08:25:52.492Z,102082.31
2018-01-07T08:28:20.936Z,102080.95
2018-01-07T08:30:49.303Z,102082.72
2018-01-07T08:33:17.721Z,102094.97
2018-01-07T08:35:46.071Z,102087.87
2018-01-07T08:38:14.419Z,102092.64
2018-01-07T08:40:44.112Z,102099.88
2018-01-07T08:43:12.448Z,102112.53
2018-01-07T08:45:40.883Z,102129.52
2018-01-07T08:48:09.622Z,102120.34
2018-01-07T08:50:37.980Z,102115.56
2018-01-07T08:53:06.357Z,102120.67
2018-01-07T08:55:34.712Z,102119.42
2018-01-07T08:58:03.564Z,102128.95
2018-01-07T09:00:31.926Z,102146.06
2018-01-07T09:03:00.282Z,102147.19
2018-01-07T09:05:28.663Z,102151.84
2018-01-07T09:07:57.005Z,102149.13
2018-01-07T09:10:25.441Z,102166.88
2018-01-07T09:12:54.588Z,102167.11
2018-01-07T09:15:23.436Z,102160.13
2018-01-07T09:17:51.780Z,102180.78
2018-01-07T09:20:20.191Z,102177.44
2018-01-07T09:22:48.542Z,102184.84
2018-01-07T09:25:16.899Z,102197.69
2018-01-07T09:27:45.640Z,102183.84
2018-01-07T09:30:14.000Z,102182.19
2018-01-07T09:32:42.379Z,102188.76
2018-01-07T09:35:10.777Z,102188.28
2018-01-07T09:37:39.140Z,102198.59
2018-01-07T09:40:07.499Z,102208.98
2018-01-07T09:42:35.860Z,102206.50
2018-01-07T09:45:04.596Z,102210.13
2018-01-07T09:47:32.951Z,102204.88
2018-01-07T09:50:01.318Z,102205.05
2018-01-07T09:52:29.827Z,102213.22
2018-01-07T09:54:58.171Z,102223.89
2018-01-07T09:57:26.682Z,102225.09
2018-01-07T09:59:55.039Z,102228.33
2018-01-07T10:02:23.395Z,102230.06
2018-01-07T10:04:51.737Z,102224.75
2018-01-07T10:07:20.108Z,102224.89
2018-01-07T10:09:48.460Z,102228.62
2018-01-07T10:12:16.858Z,102231.25
2018-01-07T10:14:45.217Z,102250.81
2018-01-07T10:17:13.615Z,102241.59
2018-01-07T10:19:41.991Z,102244.81
2018-01-07T10:22:10.376Z,102239.29
2018-01-07T10:24:38.713Z,102254.42
2018-01-07T10:27:07.256Z,102263.23
2018-01-07T10:29:35.608Z,102257.56
2018-01-07T10:32:04.016Z,102255.40
2018-01-07T10:34:32.397Z,102265.38
2018-01-07T10:37:00.747Z,102278.98
2018-01-07T10:39:29.095Z,102284.70
2018-01-07T10:41:57.447Z,102291.23
2018-01-07T10:44:25.811Z,102288.43
2018-01-07T10:46:54.165Z,102306.71
2018-01-07T10:49:22.540Z,102294.52
2018-01-07T10:51:50.892Z,102290.13
2018-01-07T10:54:20.036Z,102303.94
2018-01-07T10:56:48.408Z,102301.71
2018-01-07T10:59:16.803Z,102303.41
2018-01-07T11:02:01.926Z,102303.50
2018-01-07T11:04:30.332Z,102305.31
2018-01-07T11:06:58.728Z,102303.75
2018-01-07T11:09:27.092Z,102306.39
2018-01-07T11:11:55.451Z,102305.39
2018-01-07T11:14:23.856Z,102300.78
2018-01-07T11:16:52.235Z,102306.95
2018-01-07T11:19:20.598Z,102311.97
2018-01-07T11:21:48.943Z,102307.72
2018-01-07T11:24:17.279Z,102308.11
2018-01-07T11:26:45.637Z,102307.23
2018-01-07T11:29:13.973Z,102296.77
2018-01-07T11:31:42.584Z,102298.98
2018-01-07T11:34:10.966Z,102304.22
2018-01-07T11:36:39.318Z,102316.91
2018-01-07T11:39:07.739Z,102306.90
2018-01-07T11:41:36.212Z,102300.59
2018-01-07T11:44:04.559Z,102297.47
2018-01-07T11:46:32.912Z,102290.84
2018-01-07T11:49:01.652Z,102289.97
2018-01-07T11:51:30.000Z,102285.98
2018-01-07T11:53:58.349Z,102303.58
2018-01-07T11:56:27.200Z,102296.25
2018-01-07T11:58:55.562Z,102300.30
2018-01-07T12:01:23.933Z,102301.45
2018-01-07T12:03:52.344Z,102300.53
2018-01-07T12:06:21.052Z,102294.27
2018-01-07T12:08:49.570Z,102304.87
2018-01-07T12:11:17.920Z,102309.88
2018-01-07T12:13:47.083Z,102309.77
2018-01-07T12:16:15.434Z,102296.70
2018-01-07T12:18:43.771Z,102308.55
2018-01-07T12:21:12.124Z,102298.66
2018-01-07T12:23:40.506Z,102305.41
2018-01-07T12:26:08.870Z,102312.88
2018-01-07T12:28:37.220Z,102314.08
2018-01-07T12:31:05.632Z,102318.84
2018-01-07T12:33:34.004Z,102312.20
2018-01-07T12:36:02.404Z,102302.56
2018-01-07T12:38:30.755Z,102319.45
2018-01-07T12:40:59.285Z,102321.70
2018-01-07T12:44:28.679Z,102319.77
2018-01-07T12:46:57.124Z,102331.58
2018-01-07T12:49:25.468Z,102325.52
2018-01-07T12:51:54.305Z,102324.80
2018-01-07T12:54:22.679Z,102319.24
2018-01-07T12:56:51.059Z,102315.24
2018-01-07T12:59:19.420Z,102317.81
2018-01-07T13:01:47.835Z,102324.75
2018-01-07T13:04:16.178Z,102327.20
2018-01-07T13:06:44.575Z,102326.42
2018-01-07T13:09:12.924Z,102326.39
2018-01-07T13:11:41.264Z,102328.34
2018-01-07T13:14:09.615Z,102329.20
2018-01-07T13:16:37.964Z,102324.98
2018-01-07T13:19:06.377Z,102318.46
2018-01-07T13:21:34.746Z,102336.84
2018-01-07T13:24:03.088Z,102331.16
2018-01-07T13:26:31.432Z,102333.91
2018-01-07T13:28:59.891Z,102349.08
2018-01-07T13:31:28.267Z,102337.52
2018-01-07T13:33:56.616Z,102340.78
2018-01-07T13:36:24.979Z,102343.90
2018-01-07T13:38:53.804Z,102345.89
2018-01-07T13:41:22.163Z,102355.00
2018-01-07T13:43:50.523Z,102360.25
2018-01-07T13:46:19.270Z,102359.68
2018-01-07T13:48:47.608Z,102364.79
2018-01-07T13:51:15.981Z,102368.94
2018-01-07T13:53:44.344Z,102376.47
2018-01-07T13:56:12.776Z,102392.23
2018-01-07T13:58:41.789Z,102388.98
2018-01-07T14:01:10.133Z,102388.44
2018-01-07T14:03:38.621Z,102401.25
2018-01-07T14:06:06.985Z,102393.33
2018-01-07T14:08:35.346Z,102394.59
2018-01-07T14:11:03.761Z,102397.13
2018-01-07T14:13:32.122Z,102410.30
2018-01-07T14:16:00.516Z,102398.92
2018-01-07T14:18:28.862Z,102410.78
2018-01-07T14:20:57.296Z,102414.58
2018-01-07T14:23:25.653Z,102413.59
2018-01-07T14:25:54.032Z,102422.94
2018-01-07T14:28:22.522Z,102420.22
2018-01-07T14:30:50.886Z,102431.58
2018-01-07T14:33:19.378Z,102430.17
2018-01-07T14:35:47.732Z,102436.78
2018-01-07T14:38:16.087Z,102432.83
2018-01-07T14:40:44.444Z,102439.95
2018-01-07T14:43:13.177Z,102443.51
2018-01-07T14:45:41.578Z,102440.07
2018-01-07T14:48:09.959Z,102433.09
2018-01-07T14:50:38.327Z,102431.70
2018-01-07T14:53:06.692Z,102436.63
2018-01-07T14:55:35.053Z,102442.22
2018-01-07T14:58:03.414Z,102437.09
2018-01-07T15:00:31.847Z,102440.81
2018-01-07T15:03:00.208Z,102440.97
2018-01-07T15:05:28.570Z,102444.46
2018-01-07T15:07:56.914Z,102443.59
2018-01-07T15:10:25.278Z,102444.91
2018-01-07T15:12:53.639Z,102447.77
2018-01-07T15:15:22.002Z,102463.38
2018-01-07T15:17:50.398Z,102458.12
2018-01-07T15:20:18.784Z,102465.10
2018-01-07T15:22:47.159Z,102473.56
2018-01-07T15:25:15.532Z,102472.25
2018-01-07T15:27:43.912Z,102470.50
2018-01-07T15:30:12.264Z,102470.59
2018-01-07T15:32:40.611Z,102480.28
2018-01-07T15:35:09.376Z,102488.98
2018-01-07T15:37:37.734Z,102486.25
2018-01-07T15:40:06.087Z,102482.41
2018-01-07T15:42:35.191Z,102478.44
2018-01-07T15:45:03.542Z,102481.72
2018-01-07T15:47:31.897Z,102472.76
2018-01-07T15:50:00.641Z,102477.92
2018-01-07T15:52:29.002Z,102477.28
2018-01-07T15:54:57.342Z,102475.86
2018-01-07T15:57:26.089Z,102483.58
2018-01-07T15:59:54.464Z,102489.11
2018-01-07T16:02:22.822Z,102493.72
2018-01-07T16:04:51.161Z,102499.16
2018-01-07T16:07:19.908Z,102497.34
2018-01-07T16:09:48.265Z,102494.21
2018-01-07T16:12:16.631Z,102500.45
2018-01-07T16:14:45.086Z,102492.41
2018-01-07T16:17:13.950Z,102500.05
2018-01-07T16:19:42.341Z,102504.58
2018-01-07T16:22:10.909Z,102506.67
2018-01-07T16:24:39.256Z,102498.05
2018-01-07T16:27:07.615Z,102500.90
2018-01-07T16:29:36.056Z,102499.83
2018-01-07T16:32:04.411Z,102493.27
2018-01-07T16:34:32.758Z,102499.33
2018-01-07T16:37:01.171Z,102503.83
2018-01-07T16:39:29.528Z,102514.55
2018-01-07T16:41:57.892Z,102509.91
2018-01-07T16:44:26.246Z,102519.17
2018-01-07T16:46:54.601Z,102513.88
2018-01-07T16:49:22.968Z,102514.14
2018-01-07T16:51:51.344Z,102525.77
2018-01-07T16:54:19.694Z,102522.70
2018-01-07T16:56:48.073Z,102520.36
2018-01-07T16:59:16.432Z,102522.02
2018-01-07T17:01:45.271Z,102520.11
2018-01-07T17:04:14.617Z,102525.66
2018-01-07T17:06:43.372Z,102527.52
2018-01-07T17:09:11.741Z,102531.00
2018-01-07T17:11:40.096Z,102530.80
2018-01-07T17:14:08.456Z,102529.31
2018-01-07T17:16:36.811Z,102526.58
2018-01-07T17:19:05.551Z,102532.41
2018-01-07T17:21:33.931Z,102542.38
2018-01-07T17:24:02.352Z,102544.27
2018-01-07T17:26:30.719Z,102538.70
2018-01-07T17:28:59.226Z,102539.76
2018-01-07T17:31:28.187Z,102548.56
2018-01-07T17:33:56.553Z,102553.06
2018-01-07T17:36:25.907Z,102549.08
2018-01-07T17:38:54.349Z,102551.00
2018-01-07T17:41:22.704Z,102558.67
2018-01-07T17:43:51.055Z,102554.63
2018-01-07T17:46:19.431Z,102555.97
2018-01-07T17:48:47.799Z,102565.47
2018-01-07T17:51:16.651Z,102559.59
2018-01-07T17:53:45.006Z,102563.07
2018-01-07T17:56:13.389Z,102567.23
2018-01-07T17:58:41.733Z,102565.08
2018-01-07T18:01:10.119Z,102557.06
2018-01-07T18:03:38.459Z,102560.11
2018-01-07T18:06:06.904Z,102562.73
2018-01-07T18:08:35.837Z,102566.21
2018-01-07T18:11:04.597Z,102566.80
2018-01-07T18:13:33.897Z,102574.16
2018-01-07T18:16:02.305Z,102570.37
2018-01-07T18:18:31.066Z,102570.69
2018-01-07T18:20:59.441Z,102570.20
2018-01-07T18:23:27.794Z,102568.38
2018-01-07T18:25:56.213Z,102566.59
2018-01-07T18:28:24.596Z,102568.83
2018-01-07T18:30:52.953Z,102574.18
2018-01-07T18:33:21.300Z,102575.88
2018-01-07T18:35:49.664Z,102589.30
2018-01-07T18:38:18.036Z,102579.41
2018-01-07T18:40:46.867Z,102573.02
2018-01-07T18:43:15.208Z,102572.94
2018-01-07T18:45:43.988Z,102586.64
2018-01-07T18:48:12.360Z,102576.38
2018-01-07T18:50:41.213Z,102580.08
2018-01-07T18:53:09.565Z,102588.38
2018-01-07T18:55:37.930Z,102573.89
2018-01-07T18:58:06.272Z,102590.16
2018-01-07T19:00:34.646Z,102588.61
2018-01-07T19:03:02.996Z,102589.72
2018-01-07T19:05:31.352Z,102599.49
2018-01-07T19:07:59.704Z,102605.22
2018-01-07T19:10:28.447Z,102596.41
2018-01-07T19:12:56.916Z,102593.50
2018-01-07T19:15:25.308Z,102594.06
2018-01-07T19:17:53.676Z,102599.78
2018-01-07T19:20:22.045Z,102611.90
2018-01-07T19:22:50.439Z,102604.47
2018-01-07T19:25:18.807Z,102608.14
2018-01-07T19:27:47.255Z,102612.73
2018-01-07T19:30:15.633Z,102606.22
2018-01-07T19:32:43.980Z,102612.60
2018-01-07T19:35:12.358Z,102621.06
2018-01-07T19:37:40.737Z,102625.73
2018-01-07T19:40:09.092Z,102622.02
2018-01-07T19:42:37.449Z,102623.02
2018-01-07T19:45:05.827Z,102623.42
2018-01-07T19:47:34.201Z,102628.88
2018-01-07T19:50:02.578Z,102623.66
2018-01-07T19:52:30.937Z,102626.80
2018-01-07T19:54:59.668Z,102627.52
2018-01-07T19:57:28.069Z,102632.89
2018-01-07T19:59:56.412Z,102628.84
2018-01-07T20:02:24.808Z,102634.81
2018-01-07T20:04:53.164Z,102629.38
2018-01-07T20:07:21.521Z,102628.09
2018-01-07T20:09:49.888Z,102637.48
2018-01-07T20:12:18.739Z,102631.66
2018-01-07T20:14:47.082Z,102639.63
2018-01-07T20:17:15.483Z,102641.15
2018-01-07T20:19:43.898Z,102635.53
2018-01-07T20:22:12.276Z,102651.26
2018-01-07T20:24:40.640Z,102652.88
2018-01-07T20:27:09.019Z,102650.69
2018-01-07T20:29:37.380Z,102653.73
2018-01-07T20:32:05.736Z,102651.03
2018-01-07T20:34:34.097Z,102649.44
2018-01-07T20:37:02.465Z,102647.53
2018-01-07T20:39:31.220Z,102644.31
2018-01-07T20:41:59.676Z,102656.97
2018-01-07T20:44:28.028Z,102645.97
2018-01-07T20:46:56.403Z,102652.48
2018-01-07T20:49:24.815Z,102660.91
2018-01-07T20:51:53.174Z,102655.41
2018-01-07T20:54:21.532Z,102655.80
2018-01-07T20:56:50.300Z,102654.28
2018-01-07T20:59:19.152Z,102655.68
2018-01-07T21:01:47.523Z,102657.42
2018-01-07T21:04:15.880Z,102664.61
2018-01-07T21:06:44.288Z,102662.36
2018-01-07T21:09:12.882Z,102656.52
2018-01-07T21:11:41.367Z,102666.29
2018-01-07T21:14:09.706Z,102662.64
2018-01-07T21:16:38.243Z,102658.49
2018-01-07T21:19:06.837Z,102658.13
2018-01-07T21:21:35.224Z,102661.57
2018-01-07T21:24:03.636Z,102658.00
2018-01-07T21:26:32.053Z,102656.39
2018-01-07T21:29:00.427Z,102655.41
2018-01-07T21:31:28.784Z,102647.70
2018-01-07T21:33:57.141Z,102643.78
2018-01-07T21:36:25.496Z,102650.27
2018-01-07T21:38:54.244Z,102652.11
2018-01-07T21:41:22.628Z,102656.11
2018-01-07T21:43:51.028Z,102648.50
2018-01-07T21:46:19.484Z,102653.56
2018-01-07T21:48:47.832Z,102657.23
2018-01-07T21:51:16.241Z,102653.49
2018-01-07T21:53:44.616Z,102650.67
2018-01-07T21:56:12.967Z,102663.39
2018-01-07T21:58:41.560Z,102668.03
2018-01-07T22:01:27.775Z,102653.04
2018-01-07T22:03:59.917Z,102655.25
2018-01-07T22:06:45.908Z,102666.85
2018-01-07T22:09:14.316Z,102664.22
2018-01-07T22:11:42.673Z,102664.72
2018-01-07T22:14:11.040Z,102663.86
2018-01-07T22:16:39.400Z,102662.97
2018-01-07T22:19:08.245Z,102672.28
2018-01-07T22:21:36.594Z,102656.58
2018-01-07T22:24:04.956Z,102671.27
2018-01-07T22:26:33.327Z,102666.41
2018-01-07T22:29:01.675Z,102670.74
2018-01-07T22:31:30.123Z,102670.67
2018-01-07T22:33:58.475Z,102676.50
2018-01-07T22:36:26.903Z,102674.19
2018-01-07T22:38:55.478Z,102678.21
2018-01-07T22:41:23.842Z,102666.20
2018-01-07T22:43:52.186Z,102678.23
2018-01-07T22:46:20.548Z,102678.06
2018-01-07T22:48:49.417Z,102678.08
2018-01-07T22:51:17.775Z,102662.30
2018-01-07T22:53:46.135Z,102669.64
2018-01-07T22:56:14.550Z,102673.27
2018-01-07T22:58:42.908Z,102673.44
2018-01-07T23:01:11.292Z,102675.95
2018-01-07T23:03:39.746Z,102682.62
2018-01-07T23:06:08.118Z,102677.19
2018-01-07T23:08:36.460Z,102686.55
2018-01-07T23:11:04.816Z,102681.66
2018-01-07T23:13:33.195Z,102687.59
2018-01-07T23:16:01.571Z,102689.41
2018-01-07T23:18:29.907Z,102690.29
2018-01-07T23:20:58.425Z,102684.92
2018-01-07T23:23:26.776Z,102691.69
2018-01-07T23:25:55.140Z,102684.50
2018-01-07T23:28:23.504Z,102683.84
2018-01-07T23:30:51.927Z,102694.77
2018-01-07T23:33:20.281Z,102692.33
2018-01-07T23:35:48.655Z,102688.61
2018-01-07T23:38:17.005Z,102687.19
2018-01-07T23:40:45.363Z,102690.95
2018-01-07T23:43:13.718Z,102685.54
2018-01-07T23:45:42.119Z,102683.48
2018-01-07T23:48:10.485Z,102680.61
2018-01-07T23:50:38.872Z,102686.30
2018-01-07T23:53:07.231Z,102677.06
2018-01-07T23:55:35.623Z,102674.08
2018-01-07T23:58:03.964Z,102668.31
